sensor_id;sensor_type;location;lat;lon;timestamp;pressure;altitude;pressure_sealevel;temperature;humidity
15880;BME280;61999;51.514;14.614;2023-05-09T00:01:11;100866.31;;;3.79;42.67
15880;BME280;61999;51.514;14.614;2023-05-09T00:03:40;100866.84;;;3.65;43.43
15880;BME280;61999;51.514;14.614;2023-05-09T00:06:09;100859.66;;;3.72;42.68
15880;BME280;61999;51.514;14.614;2023-05-09T00:08:39;100862.41;;;3.67;42.78
15880;BME280;61999;51.514;14.614;2023-05-09T00:11:07;100861.75;;;3.62;42.93
15880;BME280;61999;51.514;14.614;2023-05-09T00:13:35;100863.50;;;3.62;42.80
15880;BME280;61999;51.514;14.614;2023-05-09T00:16:07;100864.34;;;3.39;43.38
15880;BME280;61999;51.514;14.614;2023-05-09T00:18:35;100859.09;;;3.40;42.99
15880;BME280;61999;51.514;14.614;2023-05-09T00:21:03;100861.63;;;3.42;42.93
15880;BME280;61999;51.514;14.614;2023-05-09T00:23:31;100856.31;;;3.45;42.92
15880;BME280;61999;51.514;14.614;2023-05-09T00:25:59;100855.41;;;3.46;42.48
15880;BME280;61999;51.514;14.614;2023-05-09T00:28:27;100852.78;;;3.46;42.49
15880;BME280;61999;51.514;14.614;2023-05-09T00:30:56;100853.78;;;3.42;42.51
15880;BME280;61999;51.514;14.614;2023-05-09T00:33:25;100852.09;;;3.41;42.38
15880;BME280;61999;51.514;14.614;2023-05-09T00:35:54;100850.75;;;3.31;42.92
15880;BME280;61999;51.514;14.614;2023-05-09T00:38:22;100848.88;;;3.34;42.25
15880;BME280;61999;51.514;14.614;2023-05-09T00:40:50;100845.53;;;3.31;42.30
15880;BME280;61999;51.514;14.614;2023-05-09T00:43:19;100842.13;;;3.28;42.48
15880;BME280;61999;51.514;14.614;2023-05-09T00:45:47;100843.31;;;3.18;42.89
15880;BME280;61999;51.514;14.614;2023-05-09T00:48:16;100830.31;;;3.18;42.77
15880;BME280;61999;51.514;14.614;2023-05-09T00:50:46;100838.22;;;3.15;42.58
15880;BME280;61999;51.514;14.614;2023-05-09T00:53:18;100844.34;;;3.14;42.62
15880;BME280;61999;51.514;14.614;2023-05-09T00:55:47;100844.25;;;3.17;42.37
15880;BME280;61999;51.514;14.614;2023-05-09T00:58:15;100839.03;;;3.17;42.25
15880;BME280;61999;51.514;14.614;2023-05-09T01:00:45;100837.34;;;3.16;42.09
15880;BME280;61999;51.514;14.614;2023-05-09T01:03:14;100833.97;;;3.13;42.44
15880;BME280;61999;51.514;14.614;2023-05-09T01:05:53;100834.25;;;3.05;43.26
15880;BME280;61999;51.514;14.614;2023-05-09T01:08:36;100836.06;;;3.03;42.57
15880;BME280;61999;51.514;14.614;2023-05-09T01:11:14;100826.59;;;3.00;42.57
15880;BME280;61999;51.514;14.614;2023-05-09T01:13:57;100826.75;;;2.96;42.97
15880;BME280;61999;51.514;14.614;2023-05-09T01:16:36;100831.38;;;2.88;43.40
15880;BME280;61999;51.514;14.614;2023-05-09T01:19:26;100829.69;;;2.87;42.75
15880;BME280;61999;51.514;14.614;2023-05-09T01:22:04;100825.59;;;2.79;43.10
15880;BME280;61999;51.514;14.614;2023-05-09T01:25:00;100824.06;;;2.74;43.41
15880;BME280;61999;51.514;14.614;2023-05-09T01:27:38;100823.19;;;2.73;43.10
15880;BME280;61999;51.514;14.614;2023-05-09T01:30:13;100817.19;;;2.71;42.94
15880;BME280;61999;51.514;14.614;2023-05-09T01:32:45;100821.66;;;2.68;43.38
15880;BME280;61999;51.514;14.614;2023-05-09T01:35:16;100815.69;;;2.64;43.20
15880;BME280;61999;51.514;14.614;2023-05-09T01:37:48;100820.13;;;2.62;43.48
15880;BME280;61999;51.514;14.614;2023-05-09T01:40:20;100811.63;;;2.57;43.83
15880;BME280;61999;51.514;14.614;2023-05-09T01:42:53;100806.72;;;2.48;43.85
15880;BME280;61999;51.514;14.614;2023-05-09T01:45:25;100812.78;;;2.48;43.93
15880;BME280;61999;51.514;14.614;2023-05-09T01:47:56;100807.66;;;2.45;43.88
15880;BME280;61999;51.514;14.614;2023-05-09T01:50:28;100809.78;;;2.34;44.29
15880;BME280;61999;51.514;14.614;2023-05-09T01:52:58;100802.72;;;2.37;43.80
15880;BME280;61999;51.514;14.614;2023-05-09T01:55:33;100802.09;;;2.29;44.41
15880;BME280;61999;51.514;14.614;2023-05-09T01:58:04;100806.56;;;2.26;44.38
15880;BME280;61999;51.514;14.614;2023-05-09T02:00:34;100797.09;;;2.23;44.48
15880;BME280;61999;51.514;14.614;2023-05-09T02:03:03;100806.00;;;2.16;45.18
15880;BME280;61999;51.514;14.614;2023-05-09T02:05:33;100793.97;;;2.13;45.05
15880;BME280;61999;51.514;14.614;2023-05-09T02:08:03;100797.63;;;2.08;45.16
15880;BME280;61999;51.514;14.614;2023-05-09T02:10:34;100801.88;;;2.10;44.80
15880;BME280;61999;51.514;14.614;2023-05-09T02:13:03;100796.84;;;2.04;44.77
15880;BME280;61999;51.514;14.614;2023-05-09T02:15:31;100797.63;;;2.08;44.57
15880;BME280;61999;51.514;14.614;2023-05-09T02:18:00;100797.03;;;1.98;45.34
15880;BME280;61999;51.514;14.614;2023-05-09T02:20:30;100790.88;;;2.01;44.89
15880;BME280;61999;51.514;14.614;2023-05-09T02:23:02;100794.69;;;1.90;45.47
15880;BME280;61999;51.514;14.614;2023-05-09T02:25:31;100799.91;;;1.90;45.49
15880;BME280;61999;51.514;14.614;2023-05-09T02:28:00;100798.06;;;1.92;45.04
15880;BME280;61999;51.514;14.614;2023-05-09T02:30:35;100810.09;;;1.97;44.67
15880;BME280;61999;51.514;14.614;2023-05-09T02:33:07;100806.78;;;1.91;45.28
15880;BME280;61999;51.514;14.614;2023-05-09T02:35:38;100798.28;;;1.86;44.90
15880;BME280;61999;51.514;14.614;2023-05-09T02:38:09;100800.88;;;1.86;45.16
15880;BME280;61999;51.514;14.614;2023-05-09T02:40:38;100805.22;;;1.84;45.35
15880;BME280;61999;51.514;14.614;2023-05-09T02:43:09;100801.00;;;1.82;45.01
15880;BME280;61999;51.514;14.614;2023-05-09T02:45:37;100800.13;;;1.81;45.22
15880;BME280;61999;51.514;14.614;2023-05-09T02:48:07;100807.13;;;1.79;45.12
15880;BME280;61999;51.514;14.614;2023-05-09T02:50:36;100804.69;;;1.73;45.50
15880;BME280;61999;51.514;14.614;2023-05-09T02:53:05;100804.69;;;1.73;45.45
15880;BME280;61999;51.514;14.614;2023-05-09T02:55:33;100817.69;;;1.73;45.37
15880;BME280;61999;51.514;14.614;2023-05-09T02:58:01;100817.69;;;1.73;44.99
15880;BME280;61999;51.514;14.614;2023-05-09T03:00:38;100815.09;;;1.73;44.83
15880;BME280;61999;51.514;14.614;2023-05-09T03:03:07;100809.16;;;1.69;44.77
15880;BME280;61999;51.514;14.614;2023-05-09T03:05:36;100808.53;;;1.61;45.39
15880;BME280;61999;51.514;14.614;2023-05-09T03:08:04;100802.47;;;1.61;45.24
15880;BME280;61999;51.514;14.614;2023-05-09T03:10:33;100800.06;;;1.55;45.22
15880;BME280;61999;51.514;14.614;2023-05-09T03:13:01;100801.84;;;1.53;45.57
15880;BME280;61999;51.514;14.614;2023-05-09T03:15:29;100798.41;;;1.52;45.45
15880;BME280;61999;51.514;14.614;2023-05-09T03:17:57;100797.84;;;1.42;45.83
15880;BME280;61999;51.514;14.614;2023-05-09T03:20:26;100793.53;;;1.41;45.97
15880;BME280;61999;51.514;14.614;2023-05-09T03:22:54;100791.94;;;1.36;46.20
15880;BME280;61999;51.514;14.614;2023-05-09T03:25:23;100786.00;;;1.32;46.17
15880;BME280;61999;51.514;14.614;2023-05-09T03:27:52;100787.88;;;1.27;46.86
15880;BME280;61999;51.514;14.614;2023-05-09T03:30:20;100780.97;;;1.26;46.18
15880;BME280;61999;51.514;14.614;2023-05-09T03:32:48;100786.34;;;1.20;47.03
15880;BME280;61999;51.514;14.614;2023-05-09T03:35:16;100783.03;;;1.15;47.26
15880;BME280;61999;51.514;14.614;2023-05-09T03:37:45;100782.84;;;1.21;46.82
15880;BME280;61999;51.514;14.614;2023-05-09T03:40:13;100779.47;;;1.19;46.87
15880;BME280;61999;51.514;14.614;2023-05-09T03:42:42;100785.63;;;1.15;47.45
15880;BME280;61999;51.514;14.614;2023-05-09T03:45:10;100783.88;;;1.15;47.49
15880;BME280;61999;51.514;14.614;2023-05-09T03:47:38;100784.97;;;1.08;48.16
15880;BME280;61999;51.514;14.614;2023-05-09T03:50:08;100788.31;;;1.12;47.12
15880;BME280;61999;51.514;14.614;2023-05-09T03:52:36;100787.56;;;1.08;47.67
15880;BME280;61999;51.514;14.614;2023-05-09T03:55:07;100793.78;;;1.02;48.03
15880;BME280;61999;51.514;14.614;2023-05-09T03:57:35;100793.59;;;1.09;48.08
15880;BME280;61999;51.514;14.614;2023-05-09T04:00:05;100784.16;;;1.06;47.73
15880;BME280;61999;51.514;14.614;2023-05-09T04:02:34;100785.75;;;1.10;48.00
15880;BME280;61999;51.514;14.614;2023-05-09T04:05:02;100784.81;;;1.13;47.72
15880;BME280;61999;51.514;14.614;2023-05-09T04:07:30;100781.47;;;1.09;48.23
15880;BME280;61999;51.514;14.614;2023-05-09T04:09:59;100787.69;;;1.03;48.58
15880;BME280;61999;51.514;14.614;2023-05-09T04:12:28;100789.25;;;1.09;48.09
15880;BME280;61999;51.514;14.614;2023-05-09T04:14:57;100790.19;;;1.07;48.44
15880;BME280;61999;51.514;14.614;2023-05-09T04:17:25;100785.84;;;1.07;48.95
15880;BME280;61999;51.514;14.614;2023-05-09T04:19:53;100781.66;;;1.01;49.03
15880;BME280;61999;51.514;14.614;2023-05-09T04:22:21;100783.13;;;1.12;48.78
15880;BME280;61999;51.514;14.614;2023-05-09T04:24:50;100788.31;;;1.12;48.65
15880;BME280;61999;51.514;14.614;2023-05-09T04:27:18;100783.22;;;1.09;48.84
15880;BME280;61999;51.514;14.614;2023-05-09T04:29:48;100780.56;;;1.10;49.11
15880;BME280;61999;51.514;14.614;2023-05-09T04:32:16;100782.28;;;1.11;49.06
15880;BME280;61999;51.514;14.614;2023-05-09T04:34:44;100789.03;;;1.17;49.32
15880;BME280;61999;51.514;14.614;2023-05-09T04:37:12;100776.88;;;1.19;48.99
15880;BME280;61999;51.514;14.614;2023-05-09T04:39:41;100796.53;;;1.27;49.02
15880;BME280;61999;51.514;14.614;2023-05-09T04:42:09;100779.94;;;1.33;48.35
15880;BME280;61999;51.514;14.614;2023-05-09T04:44:37;100783.59;;;1.26;49.88
15880;BME280;61999;51.514;14.614;2023-05-09T04:47:06;100785.25;;;1.28;49.09
15880;BME280;61999;51.514;14.614;2023-05-09T04:49:34;100787.19;;;1.22;49.14
15880;BME280;61999;51.514;14.614;2023-05-09T04:52:03;100786.22;;;1.24;49.84
15880;BME280;61999;51.514;14.614;2023-05-09T04:54:31;100787.84;;;1.28;50.02
15880;BME280;61999;51.514;14.614;2023-05-09T04:56:59;100794.44;;;1.40;48.89
15880;BME280;61999;51.514;14.614;2023-05-09T04:59:32;100785.72;;;1.41;49.75
15880;BME280;61999;51.514;14.614;2023-05-09T05:02:08;100789.22;;;1.40;49.34
15880;BME280;61999;51.514;14.614;2023-05-09T05:04:36;100782.91;;;1.49;49.85
15880;BME280;61999;51.514;14.614;2023-05-09T05:07:04;100787.03;;;1.56;49.31
15880;BME280;61999;51.514;14.614;2023-05-09T05:09:32;100781.47;;;1.68;49.31
15880;BME280;61999;51.514;14.614;2023-05-09T05:12:00;100787.59;;;1.66;49.33
15880;BME280;61999;51.514;14.614;2023-05-09T05:14:29;100791.78;;;1.71;49.37
15880;BME280;61999;51.514;14.614;2023-05-09T05:16:57;100782.63;;;1.88;48.51
15880;BME280;61999;51.514;14.614;2023-05-09T05:19:26;100778.13;;;1.93;49.01
15880;BME280;61999;51.514;14.614;2023-05-09T05:21:54;100777.06;;;1.99;49.00
15880;BME280;61999;51.514;14.614;2023-05-09T05:24:23;100775.19;;;2.04;49.00
15880;BME280;61999;51.514;14.614;2023-05-09T05:26:51;100778.59;;;2.06;48.92
15880;BME280;61999;51.514;14.614;2023-05-09T05:29:19;100769.78;;;2.10;48.55
15880;BME280;61999;51.514;14.614;2023-05-09T05:31:47;100777.44;;;2.14;48.36
15880;BME280;61999;51.514;14.614;2023-05-09T05:34:15;100774.59;;;2.22;48.17
15880;BME280;61999;51.514;14.614;2023-05-09T05:36:44;100770.38;;;2.18;48.50
15880;BME280;61999;51.514;14.614;2023-05-09T05:39:13;100776.19;;;2.26;48.20
15880;BME280;61999;51.514;14.614;2023-05-09T05:41:41;100767.31;;;2.33;48.14
15880;BME280;61999;51.514;14.614;2023-05-09T05:44:10;100770.28;;;2.48;47.78
15880;BME280;61999;51.514;14.614;2023-05-09T05:46:38;100766.81;;;2.47;47.42
15880;BME280;61999;51.514;14.614;2023-05-09T05:49:06;100766.88;;;2.46;47.28
15880;BME280;61999;51.514;14.614;2023-05-09T05:51:34;100762.56;;;2.45;46.92
15880;BME280;61999;51.514;14.614;2023-05-09T05:54:03;100756.25;;;2.52;47.56
15880;BME280;61999;51.514;14.614;2023-05-09T05:56:31;100764.03;;;2.53;47.31
15880;BME280;61999;51.514;14.614;2023-05-09T05:59:00;100749.84;;;2.62;47.52
15880;BME280;61999;51.514;14.614;2023-05-09T06:01:28;100762.63;;;2.68;46.70
15880;BME280;61999;51.514;14.614;2023-05-09T06:03:56;100753.91;;;2.69;46.82
15880;BME280;61999;51.514;14.614;2023-05-09T06:06:26;100743.28;;;2.75;46.65
15880;BME280;61999;51.514;14.614;2023-05-09T06:08:54;100746.25;;;2.90;46.87
15880;BME280;61999;51.514;14.614;2023-05-09T06:11:24;100747.31;;;3.07;46.50
15880;BME280;61999;51.514;14.614;2023-05-09T06:13:52;100733.44;;;3.07;46.29
15880;BME280;61999;51.514;14.614;2023-05-09T06:16:20;100736.00;;;3.08;45.90
15880;BME280;61999;51.514;14.614;2023-05-09T06:18:48;100740.03;;;3.17;45.71
15880;BME280;61999;51.514;14.614;2023-05-09T06:21:17;100750.69;;;3.35;45.94
15880;BME280;61999;51.514;14.614;2023-05-09T06:23:45;100747.72;;;3.44;45.52
15880;BME280;61999;51.514;14.614;2023-05-09T06:26:29;100742.59;;;3.42;45.37
15880;BME280;61999;51.514;14.614;2023-05-09T06:28:57;100733.44;;;3.54;44.95
15880;BME280;61999;51.514;14.614;2023-05-09T06:31:25;100736.94;;;3.53;44.90
15880;BME280;61999;51.514;14.614;2023-05-09T06:33:53;100736.94;;;3.53;45.21
15880;BME280;61999;51.514;14.614;2023-05-09T06:36:21;100734.00;;;3.62;45.03
15880;BME280;61999;51.514;14.614;2023-05-09T06:38:49;100728.97;;;3.80;44.48
15880;BME280;61999;51.514;14.614;2023-05-09T06:41:17;100730.16;;;3.93;44.40
15880;BME280;61999;51.514;14.614;2023-05-09T06:43:46;100713.22;;;4.03;44.34
15880;BME280;61999;51.514;14.614;2023-05-09T06:46:15;100711.25;;;3.88;43.72
15880;BME280;61999;51.514;14.614;2023-05-09T06:48:43;100720.53;;;4.15;43.54
15880;BME280;61999;51.514;14.614;2023-05-09T06:51:11;100715.19;;;4.18;43.56
15880;BME280;61999;51.514;14.614;2023-05-09T06:53:39;100710.31;;;4.31;43.27
15880;BME280;61999;51.514;14.614;2023-05-09T06:56:07;100701.53;;;4.32;43.71
15880;BME280;61999;51.514;14.614;2023-05-09T06:58:36;100695.91;;;4.41;43.18
15880;BME280;61999;51.514;14.614;2023-05-09T07:01:05;100691.31;;;4.48;42.54
15880;BME280;61999;51.514;14.614;2023-05-09T07:03:33;100696.28;;;4.54;41.87
15880;BME280;61999;51.514;14.614;2023-05-09T07:06:01;100694.38;;;4.58;41.87
15880;BME280;61999;51.514;14.614;2023-05-09T07:08:29;100687.84;;;4.68;41.61
15880;BME280;61999;51.514;14.614;2023-05-09T07:10:57;100681.38;;;4.77;41.83
15880;BME280;61999;51.514;14.614;2023-05-09T07:13:25;100679.66;;;4.76;41.40
15880;BME280;61999;51.514;14.614;2023-05-09T07:15:53;100676.19;;;4.75;41.72
15880;BME280;61999;51.514;14.614;2023-05-09T07:18:23;100679.13;;;4.88;41.15
15880;BME280;61999;51.514;14.614;2023-05-09T07:20:51;100668.53;;;4.91;40.98
15880;BME280;61999;51.514;14.614;2023-05-09T07:23:19;100670.38;;;5.08;40.35
15880;BME280;61999;51.514;14.614;2023-05-09T07:25:47;100657.06;;;5.13;39.87
15880;BME280;61999;51.514;14.614;2023-05-09T07:28:15;100664.81;;;5.33;39.94
15880;BME280;61999;51.514;14.614;2023-05-09T07:30:43;100663.31;;;5.46;39.99
15880;BME280;61999;51.514;14.614;2023-05-09T07:33:11;100649.94;;;5.52;39.18
15880;BME280;61999;51.514;14.614;2023-05-09T07:35:41;100647.50;;;5.67;38.46
15880;BME280;61999;51.514;14.614;2023-05-09T07:38:09;100651.44;;;5.75;38.12
15880;BME280;61999;51.514;14.614;2023-05-09T07:40:37;100636.38;;;5.81;37.55
15880;BME280;61999;51.514;14.614;2023-05-09T07:43:05;100634.59;;;5.98;38.06
15880;BME280;61999;51.514;14.614;2023-05-09T07:45:33;100624.50;;;6.26;37.42
15880;BME280;61999;51.514;14.614;2023-05-09T07:48:02;100616.03;;;6.36;37.55
15880;BME280;61999;51.514;14.614;2023-05-09T07:50:30;100618.47;;;6.57;37.04
15880;BME280;61999;51.514;14.614;2023-05-09T07:52:59;100602.03;;;6.37;36.01
15880;BME280;61999;51.514;14.614;2023-05-09T07:55:27;100618.16;;;6.63;36.39
15880;BME280;61999;51.514;14.614;2023-05-09T07:57:55;100604.38;;;6.91;36.28
15880;BME280;61999;51.514;14.614;2023-05-09T08:00:24;100603.47;;;7.08;35.54
15880;BME280;61999;51.514;14.614;2023-05-09T08:02:52;100605.25;;;7.23;35.61
15880;BME280;61999;51.514;14.614;2023-05-09T08:05:20;100598.03;;;7.43;36.19
15880;BME280;61999;51.514;14.614;2023-05-09T08:07:48;100590.38;;;7.68;36.46
15880;BME280;61999;51.514;14.614;2023-05-09T08:10:18;100579.69;;;7.87;35.79
15880;BME280;61999;51.514;14.614;2023-05-09T08:12:47;100577.34;;;7.97;33.18
15880;BME280;61999;51.514;14.614;2023-05-09T08:15:15;100595.63;;;7.68;33.03
15880;BME280;61999;51.514;14.614;2023-05-09T08:17:44;100586.09;;;8.12;33.53
15880;BME280;61999;51.514;14.614;2023-05-09T08:20:13;100578.03;;;8.29;33.18
15880;BME280;61999;51.514;14.614;2023-05-09T08:22:41;100580.84;;;8.55;33.30
15880;BME280;61999;51.514;14.614;2023-05-09T08:25:10;100579.41;;;8.78;33.04
15880;BME280;61999;51.514;14.614;2023-05-09T08:27:40;100564.38;;;8.65;32.17
15880;BME280;61999;51.514;14.614;2023-05-09T08:30:10;100564.47;;;9.05;32.83
15880;BME280;61999;51.514;14.614;2023-05-09T08:32:39;100566.97;;;9.21;31.25
15880;BME280;61999;51.514;14.614;2023-05-09T08:35:08;100551.41;;;9.31;31.71
15880;BME280;61999;51.514;14.614;2023-05-09T08:37:36;100558.81;;;9.51;30.36
15880;BME280;61999;51.514;14.614;2023-05-09T08:40:06;100560.16;;;9.84;30.90
15880;BME280;61999;51.514;14.614;2023-05-09T08:42:36;100552.34;;;9.70;30.60
15880;BME280;61999;51.514;14.614;2023-05-09T08:45:09;100550.25;;;10.00;30.21
15880;BME280;61999;51.514;14.614;2023-05-09T08:47:38;100555.75;;;9.97;30.04
15880;BME280;61999;51.514;14.614;2023-05-09T08:50:09;100547.38;;;10.29;29.49
15880;BME280;61999;51.514;14.614;2023-05-09T08:52:40;100551.69;;;10.56;28.56
15880;BME280;61999;51.514;14.614;2023-05-09T08:55:09;100544.97;;;10.76;29.20
15880;BME280;61999;51.514;14.614;2023-05-09T08:57:38;100543.22;;;10.87;29.14
15880;BME280;61999;51.514;14.614;2023-05-09T09:00:13;100545.66;;;10.90;28.19
15880;BME280;61999;51.514;14.614;2023-05-09T09:02:45;100529.44;;;10.84;30.28
15880;BME280;61999;51.514;14.614;2023-05-09T09:05:13;100543.84;;;11.15;27.67
15880;BME280;61999;51.514;14.614;2023-05-09T09:07:57;100538.47;;;11.41;28.12
15880;BME280;61999;51.514;14.614;2023-05-09T09:10:31;100554.41;;;11.15;27.52
15880;BME280;61999;51.514;14.614;2023-05-09T09:13:02;100541.63;;;11.33;27.04
15880;BME280;61999;51.514;14.614;2023-05-09T09:15:36;100533.28;;;11.15;27.10
15880;BME280;61999;51.514;14.614;2023-05-09T09:18:07;100532.28;;;11.75;27.00
15880;BME280;61999;51.514;14.614;2023-05-09T09:20:44;100531.56;;;11.85;26.79
15880;BME280;61999;51.514;14.614;2023-05-09T09:23:19;100531.19;;;12.00;26.13
15880;BME280;61999;51.514;14.614;2023-05-09T09:25:58;100526.06;;;12.44;26.23
15880;BME280;61999;51.514;14.614;2023-05-09T09:28:30;100518.44;;;12.73;26.82
15880;BME280;61999;51.514;14.614;2023-05-09T09:31:19;100504.19;;;13.17;26.05
15880;BME280;61999;51.514;14.614;2023-05-09T09:33:49;100509.78;;;13.35;26.01
15880;BME280;61999;51.514;14.614;2023-05-09T09:36:26;100500.97;;;13.14;25.28
15880;BME280;61999;51.514;14.614;2023-05-09T09:38:59;100498.84;;;13.50;23.73
15880;BME280;61999;51.514;14.614;2023-05-09T09:41:31;100490.16;;;13.69;24.10
15880;BME280;61999;51.514;14.614;2023-05-09T09:44:06;100486.31;;;13.73;24.35
15880;BME280;61999;51.514;14.614;2023-05-09T09:46:45;100483.91;;;14.00;25.45
15880;BME280;61999;51.514;14.614;2023-05-09T09:49:16;100482.31;;;14.19;25.16
15880;BME280;61999;51.514;14.614;2023-05-09T09:51:48;100481.72;;;14.56;25.09
15880;BME280;61999;51.514;14.614;2023-05-09T09:54:17;100495.00;;;14.75;24.71
15880;BME280;61999;51.514;14.614;2023-05-09T09:56:48;100483.56;;;15.23;24.02
15880;BME280;61999;51.514;14.614;2023-05-09T09:59:21;100503.94;;;15.32;23.83
15880;BME280;61999;51.514;14.614;2023-05-09T10:01:57;100461.84;;;15.47;23.45
15880;BME280;61999;51.514;14.614;2023-05-09T10:04:29;100479.50;;;15.86;24.62
15880;BME280;61999;51.514;14.614;2023-05-09T10:06:59;100486.78;;;15.83;24.54
15880;BME280;61999;51.514;14.614;2023-05-09T10:09:29;100463.34;;;15.97;22.58
15880;BME280;61999;51.514;14.614;2023-05-09T10:12:01;100465.28;;;16.04;23.22
15880;BME280;61999;51.514;14.614;2023-05-09T10:14:32;100457.78;;;16.18;23.69
15880;BME280;61999;51.514;14.614;2023-05-09T10:17:03;100473.47;;;16.66;21.84
15880;BME280;61999;51.514;14.614;2023-05-09T10:19:33;100454.56;;;17.13;22.65
15880;BME280;61999;51.514;14.614;2023-05-09T10:22:08;100458.66;;;17.26;22.75
15880;BME280;61999;51.514;14.614;2023-05-09T10:24:41;100442.97;;;17.49;21.68
15880;BME280;61999;51.514;14.614;2023-05-09T10:27:13;100446.44;;;18.10;21.42
15880;BME280;61999;51.514;14.614;2023-05-09T10:29:48;100444.09;;;18.73;22.23
15880;BME280;61999;51.514;14.614;2023-05-09T10:32:26;100435.25;;;18.65;21.55
15880;BME280;61999;51.514;14.614;2023-05-09T10:35:04;100436.59;;;19.02;20.87
15880;BME280;61999;51.514;14.614;2023-05-09T10:37:34;100444.09;;;18.90;19.08
15880;BME280;61999;51.514;14.614;2023-05-09T10:40:04;100431.16;;;19.51;19.75
15880;BME280;61999;51.514;14.614;2023-05-09T10:42:32;100426.88;;;19.01;19.34
15880;BME280;61999;51.514;14.614;2023-05-09T10:45:01;100420.53;;;19.18;19.06
15880;BME280;61999;51.514;14.614;2023-05-09T10:47:31;100418.41;;;19.69;19.98
15880;BME280;61999;51.514;14.614;2023-05-09T10:50:00;100406.31;;;19.81;19.18
15880;BME280;61999;51.514;14.614;2023-05-09T10:52:31;100408.81;;;20.68;19.12
15880;BME280;61999;51.514;14.614;2023-05-09T10:55:02;100412.63;;;20.97;16.99
15880;BME280;61999;51.514;14.614;2023-05-09T10:57:31;100400.00;;;21.35;16.89
15880;BME280;61999;51.514;14.614;2023-05-09T10:59:59;100399.97;;;21.20;17.23
15880;BME280;61999;51.514;14.614;2023-05-09T11:02:27;100407.66;;;21.24;17.40
15880;BME280;61999;51.514;14.614;2023-05-09T11:05:16;100395.69;;;21.85;17.14
15880;BME280;61999;51.514;14.614;2023-05-09T11:07:44;100384.91;;;22.15;15.63
15880;BME280;61999;51.514;14.614;2023-05-09T11:10:15;100398.31;;;21.64;16.79
15880;BME280;61999;51.514;14.614;2023-05-09T11:12:55;100388.41;;;21.94;16.55
15880;BME280;61999;51.514;14.614;2023-05-09T11:15:24;100393.91;;;22.07;15.87
15880;BME280;61999;51.514;14.614;2023-05-09T11:18:05;100380.00;;;19.93;17.09
15880;BME280;61999;51.514;14.614;2023-05-09T11:20:42;100374.88;;;21.13;17.38
15880;BME280;61999;51.514;14.614;2023-05-09T11:23:11;100367.78;;;21.50;16.64
15880;BME280;61999;51.514;14.614;2023-05-09T11:25:48;100358.22;;;21.92;16.61
15880;BME280;61999;51.514;14.614;2023-05-09T11:28:26;100355.03;;;22.25;17.16
15880;BME280;61999;51.514;14.614;2023-05-09T11:31:09;100356.09;;;22.30;16.96
15880;BME280;61999;51.514;14.614;2023-05-09T11:33:39;100346.59;;;22.71;16.78
15880;BME280;61999;51.514;14.614;2023-05-09T11:36:20;100342.50;;;22.32;16.49
15880;BME280;61999;51.514;14.614;2023-05-09T11:39:02;100346.59;;;22.71;15.91
15880;BME280;61999;51.514;14.614;2023-05-09T11:41:38;100330.78;;;23.24;16.08
15880;BME280;61999;51.514;14.614;2023-05-09T11:44:15;100334.00;;;23.06;15.81
15880;BME280;61999;51.514;14.614;2023-05-09T11:46:45;100323.16;;;22.43;15.98
15880;BME280;61999;51.514;14.614;2023-05-09T11:49:14;100330.28;;;23.49;16.32
15880;BME280;61999;51.514;14.614;2023-05-09T11:51:44;100320.91;;;23.31;15.99
15880;BME280;61999;51.514;14.614;2023-05-09T11:54:12;100327.34;;;23.98;15.47
15880;BME280;61999;51.514;14.614;2023-05-09T11:56:40;100314.94;;;24.04;15.63
15880;BME280;61999;51.514;14.614;2023-05-09T11:59:09;100313.09;;;24.38;14.21
15880;BME280;61999;51.514;14.614;2023-05-09T12:01:40;100311.25;;;24.51;14.42
15880;BME280;61999;51.514;14.614;2023-05-09T12:04:09;100311.91;;;25.38;14.04
15880;BME280;61999;51.514;14.614;2023-05-09T12:06:37;100308.44;;;25.70;14.41
15880;BME280;61999;51.514;14.614;2023-05-09T12:09:08;100297.22;;;26.04;13.76
15880;BME280;61999;51.514;14.614;2023-05-09T12:11:37;100299.34;;;26.52;12.65
15880;BME280;61999;51.514;14.614;2023-05-09T12:14:05;100290.22;;;26.72;13.14
15880;BME280;61999;51.514;14.614;2023-05-09T12:16:33;100282.47;;;26.50;13.63
15880;BME280;61999;51.514;14.614;2023-05-09T12:19:01;100282.94;;;26.72;12.97
15880;BME280;61999;51.514;14.614;2023-05-09T12:21:30;100276.97;;;26.64;12.82
15880;BME280;61999;51.514;14.614;2023-05-09T12:23:59;100272.50;;;26.94;12.02
15880;BME280;61999;51.514;14.614;2023-05-09T12:26:29;100263.97;;;25.72;12.91
15880;BME280;61999;51.514;14.614;2023-05-09T12:28:57;100269.56;;;26.02;13.32
15880;BME280;61999;51.514;14.614;2023-05-09T12:31:25;100257.34;;;26.25;13.07
15880;BME280;61999;51.514;14.614;2023-05-09T12:33:54;100250.75;;;26.64;13.07
15880;BME280;61999;51.514;14.614;2023-05-09T12:36:22;100255.78;;;26.61;12.49
15880;BME280;61999;51.514;14.614;2023-05-09T12:38:54;100246.41;;;26.38;13.28
15880;BME280;61999;51.514;14.614;2023-05-09T12:41:22;100251.00;;;26.13;13.59
15880;BME280;61999;51.514;14.614;2023-05-09T12:43:54;100243.16;;;26.73;13.09
15880;BME280;61999;51.514;14.614;2023-05-09T12:47:03;100235.47;;;26.88;13.61
15880;BME280;61999;51.514;14.614;2023-05-09T12:49:42;100239.09;;;27.19;12.49
15880;BME280;61999;51.514;14.614;2023-05-09T12:52:17;100240.31;;;27.05;12.51
15880;BME280;61999;51.514;14.614;2023-05-09T12:54:46;100226.03;;;26.61;12.38
15880;BME280;61999;51.514;14.614;2023-05-09T12:57:22;100214.56;;;25.65;12.62
15880;BME280;61999;51.514;14.614;2023-05-09T12:59:57;100227.47;;;25.63;13.45
15880;BME280;61999;51.514;14.614;2023-05-09T13:02:26;100216.59;;;26.26;12.65
15880;BME280;61999;51.514;14.614;2023-05-09T13:05:08;100210.91;;;26.53;13.11